createdAt,value
2023-05-23T00:01:25.268Z,13.20
2023-05-23T00:03:57.068Z,8.00
2023-05-23T00:06:26.874Z,13.65
2023-05-23T00:08:55.740Z,12.63
2023-05-23T00:11:27.263Z,11.98
2023-05-23T00:13:55.806Z,14.52
2023-05-23T00:16:24.631Z,13.27
2023-05-23T00:18:53.714Z,17.92
2023-05-23T00:21:22.418Z,15.98
2023-05-23T00:23:51.164Z,18.65
2023-05-23T00:26:24.246Z,11.23
2023-05-23T00:28:56.315Z,15.88
2023-05-23T00:31:25.989Z,11.77
2023-05-23T00:33:54.748Z,14.50
2023-05-23T00:36:23.450Z,14.45
2023-05-23T00:38:53.382Z,15.63
2023-05-23T00:41:22.006Z,15.23
2023-05-23T00:43:50.960Z,16.30
2023-05-23T00:46:21.062Z,20.65
2023-05-23T00:48:49.730Z,20.48
2023-05-23T00:51:18.484Z,18.63
2023-05-23T00:53:48.905Z,19.58
2023-05-23T00:56:17.588Z,17.45
2023-05-23T00:58:46.358Z,16.90
2023-05-23T01:01:15.812Z,17.30
2023-05-23T01:03:48.517Z,14.20
2023-05-23T01:06:18.799Z,17.55
2023-05-23T01:08:47.579Z,18.48
2023-05-23T01:11:19.453Z,17.50
2023-05-23T01:13:50.037Z,17.33
2023-05-23T01:16:20.236Z,13.95
2023-05-23T01:18:54.715Z,13.48
2023-05-23T01:21:24.516Z,15.15
2023-05-23T01:24:05.089Z,15.23
2023-05-23T01:26:36.231Z,14.02
2023-05-23T01:29:11.718Z,14.30
2023-05-23T01:31:43.072Z,14.15
2023-05-23T01:34:12.252Z,11.60
2023-05-23T01:36:42.677Z,16.27
2023-05-23T01:39:11.488Z,13.23
2023-05-23T01:41:39.880Z,14.40
2023-05-23T01:44:10.174Z,13.23
2023-05-23T01:46:44.388Z,11.50
2023-05-23T01:49:15.670Z,10.68
2023-05-23T01:51:44.586Z,13.18
2023-05-23T01:54:13.842Z,11.38
2023-05-23T01:56:43.138Z,13.27
2023-05-23T01:59:13.425Z,10.10
2023-05-23T02:01:42.639Z,9.82
2023-05-23T02:04:11.220Z,8.15
2023-05-23T02:06:41.781Z,11.15
2023-05-23T02:09:10.330Z,11.63
2023-05-23T02:11:38.624Z,11.82
2023-05-23T02:14:07.141Z,10.00
2023-05-23T02:16:37.021Z,10.10
2023-05-23T02:19:05.823Z,10.10
2023-05-23T02:21:35.504Z,9.90
2023-05-23T02:24:04.186Z,10.73
2023-05-23T02:26:32.820Z,9.70
2023-05-23T02:29:01.322Z,10.68
2023-05-23T02:31:29.818Z,10.55
2023-05-23T02:33:59.613Z,11.90
2023-05-23T02:36:28.059Z,11.65
2023-05-23T02:38:56.863Z,11.30
2023-05-23T02:41:25.303Z,10.57
2023-05-23T02:43:53.676Z,10.55
2023-05-23T02:46:22.951Z,9.90
2023-05-23T02:48:51.332Z,10.70
2023-05-23T02:51:21.458Z,12.35
2023-05-23T02:53:49.880Z,7.88
2023-05-23T02:56:18.948Z,9.30
2023-05-23T02:58:47.359Z,9.85
2023-05-23T03:01:16.285Z,6.38
2023-05-23T03:03:44.939Z,9.13
2023-05-23T03:06:14.750Z,8.55
2023-05-23T03:08:45.231Z,9.35
2023-05-23T03:11:13.798Z,9.18
2023-05-23T03:13:44.596Z,9.40
2023-05-23T03:16:13.552Z,7.97
2023-05-23T03:18:42.680Z,8.40
2023-05-23T03:21:11.413Z,9.48
2023-05-23T03:23:40.021Z,8.60
2023-05-23T03:26:10.064Z,9.50
2023-05-23T03:28:38.838Z,7.28
2023-05-23T03:31:07.580Z,8.43
2023-05-23T03:33:38.865Z,8.80
2023-05-23T03:36:09.586Z,8.43
2023-05-23T03:38:38.239Z,6.03
2023-05-23T03:41:06.908Z,7.88
2023-05-23T03:43:36.996Z,7.45
2023-05-23T03:46:05.616Z,8.50
2023-05-23T03:48:34.284Z,6.60
2023-05-23T03:51:02.963Z,10.35
2023-05-23T03:53:31.514Z,4.82
2023-05-23T03:56:00.130Z,7.25
2023-05-23T03:58:28.762Z,6.25
2023-05-23T04:01:01.218Z,8.77
2023-05-23T04:03:33.848Z,6.47
2023-05-23T04:06:02.530Z,9.93
2023-05-23T04:08:34.106Z,8.10
2023-05-23T04:11:02.989Z,8.25
2023-05-23T04:13:32.172Z,8.25
2023-05-23T04:16:05.767Z,8.15
2023-05-23T04:18:34.717Z,6.65
2023-05-23T04:21:03.116Z,6.70
2023-05-23T04:23:31.639Z,6.15
2023-05-23T04:26:00.221Z,6.63
2023-05-23T04:28:28.907Z,6.82
2023-05-23T04:30:58.596Z,6.65
2023-05-23T04:33:30.606Z,6.78
2023-05-23T04:35:59.084Z,9.13
2023-05-23T04:38:27.863Z,5.85
2023-05-23T04:40:57.341Z,5.22
2023-05-23T04:43:27.504Z,6.72
2023-05-23T04:45:56.089Z,5.45
2023-05-23T04:48:24.948Z,6.18
2023-05-23T04:50:56.185Z,5.47
2023-05-23T04:53:24.631Z,5.68
2023-05-23T04:55:53.450Z,4.38
2023-05-23T04:58:21.909Z,5.30
2023-05-23T05:00:50.574Z,4.32
2023-05-23T05:03:19.293Z,3.85
2023-05-23T05:05:47.987Z,2.17
2023-05-23T05:08:19.956Z,5.20
2023-05-23T05:10:48.710Z,4.43
2023-05-23T05:13:17.287Z,5.38
2023-05-23T05:15:46.251Z,3.83
2023-05-23T05:18:15.059Z,5.85
2023-05-23T05:20:43.960Z,6.13
2023-05-23T05:23:12.812Z,5.65
2023-05-23T05:25:42.948Z,6.03
2023-05-23T05:28:11.604Z,4.13
2023-05-23T05:30:40.700Z,4.95
2023-05-23T05:33:10.402Z,4.05
2023-05-23T05:35:39.627Z,4.47
2023-05-23T05:38:08.565Z,3.55
2023-05-23T05:40:37.315Z,3.88
2023-05-23T05:43:07.103Z,3.72
2023-05-23T05:45:35.914Z,5.10
2023-05-23T05:48:04.642Z,3.88
2023-05-23T05:50:33.329Z,3.63
2023-05-23T05:53:01.938Z,6.57
2023-05-23T05:55:30.680Z,4.45
2023-05-23T05:57:59.315Z,4.90
2023-05-23T06:00:29.396Z,4.53
2023-05-23T06:02:58.342Z,4.78
2023-05-23T06:05:27.033Z,5.47
2023-05-23T06:07:55.704Z,4.50
2023-05-23T06:10:24.722Z,5.78
2023-05-23T06:12:53.471Z,4.35
2023-05-23T06:15:22.156Z,4.20
2023-05-23T06:17:52.498Z,4.65
2023-05-23T06:20:23.345Z,4.32
2023-05-23T06:22:52.077Z,4.05
2023-05-23T06:25:21.150Z,3.55
2023-05-23T06:27:50.109Z,4.07
2023-05-23T06:30:18.924Z,5.20
2023-05-23T06:32:47.691Z,4.68
2023-05-23T06:35:18.457Z,4.50
2023-05-23T06:37:47.084Z,5.38
2023-05-23T06:40:15.706Z,5.57
2023-05-23T06:42:44.538Z,5.07
2023-05-23T06:45:15.765Z,4.82
2023-05-23T06:47:45.834Z,3.30
2023-05-23T06:50:14.567Z,3.50
2023-05-23T06:52:44.547Z,3.50
2023-05-23T06:55:15.586Z,2.25
2023-05-23T06:57:44.000Z,3.47
2023-05-23T07:00:13.968Z,3.35
2023-05-23T07:02:42.455Z,2.40
2023-05-23T07:05:11.131Z,2.30
2023-05-23T07:07:39.557Z,3.17
2023-05-23T07:10:11.186Z,2.70
2023-05-23T07:12:39.803Z,3.08
2023-05-23T07:15:09.351Z,1.08
2023-05-23T07:17:37.731Z,1.55
2023-05-23T07:20:08.361Z,1.75
2023-05-23T07:22:36.860Z,1.70
2023-05-23T07:25:06.000Z,1.55
2023-05-23T07:27:35.862Z,1.83
2023-05-23T07:30:04.461Z,1.02
2023-05-23T07:32:32.965Z,1.10
2023-05-23T07:35:01.490Z,1.30
2023-05-23T07:37:29.948Z,0.90
2023-05-23T07:39:58.298Z,0.70
2023-05-23T07:42:26.774Z,0.55
2023-05-23T07:44:56.461Z,1.23
2023-05-23T07:47:25.286Z,0.60
2023-05-23T07:49:53.767Z,0.88
2023-05-23T07:52:22.121Z,1.45
2023-05-23T07:54:50.513Z,1.20
2023-05-23T07:57:18.945Z,1.00
2023-05-23T07:59:47.270Z,1.23
2023-05-23T08:02:17.174Z,1.27
2023-05-23T08:04:46.176Z,1.88
2023-05-23T08:07:15.060Z,0.95
2023-05-23T08:09:44.251Z,0.77
2023-05-23T08:12:12.716Z,1.27
2023-05-23T08:14:50.848Z,0.70
2023-05-23T08:17:21.843Z,0.80
2023-05-23T08:19:50.222Z,0.50
2023-05-23T08:22:18.752Z,1.05
2023-05-23T08:24:47.101Z,1.35
2023-05-23T08:27:15.661Z,0.98
2023-05-23T08:29:44.389Z,1.00
2023-05-23T08:32:13.719Z,1.00
2023-05-23T08:34:44.087Z,0.75
2023-05-23T08:37:12.418Z,0.93
2023-05-23T08:39:41.604Z,1.02
2023-05-23T08:42:10.024Z,1.27
2023-05-23T08:44:40.723Z,1.02
2023-05-23T08:47:10.308Z,0.88
2023-05-23T08:49:39.842Z,0.65
2023-05-23T08:52:17.513Z,1.45
2023-05-23T08:54:46.267Z,1.05
2023-05-23T08:57:14.612Z,1.10
2023-05-23T08:59:44.051Z,1.25
2023-05-23T09:02:13.128Z,1.10
2023-05-23T09:04:41.635Z,1.75
2023-05-23T09:07:12.911Z,1.20
2023-05-23T09:09:41.386Z,1.20
2023-05-23T09:12:10.421Z,1.55
2023-05-23T09:14:38.875Z,1.63
2023-05-23T09:17:07.260Z,1.52
2023-05-23T09:19:35.730Z,0.68
2023-05-23T09:22:04.878Z,0.60
2023-05-23T09:24:38.225Z,2.08
2023-05-23T09:27:08.097Z,2.13
2023-05-23T09:29:40.247Z,2.83
2023-05-23T09:32:15.702Z,1.60
2023-05-23T09:34:44.580Z,1.52
2023-05-23T09:37:19.355Z,1.55
2023-05-23T09:39:51.790Z,2.45
2023-05-23T09:42:23.990Z,1.83
2023-05-23T09:44:52.619Z,1.33
2023-05-23T09:47:21.052Z,1.58
2023-05-23T09:49:49.645Z,2.30
2023-05-23T09:52:20.219Z,1.77
2023-05-23T09:54:50.999Z,1.70
2023-05-23T09:57:23.418Z,2.80
2023-05-23T09:59:55.362Z,1.23
2023-05-23T10:02:54.073Z,1.55
2023-05-23T10:05:34.411Z,1.80
2023-05-23T10:08:07.547Z,2.13
2023-05-23T10:10:38.242Z,0.85
2023-05-23T10:13:08.943Z,1.45
2023-05-23T10:15:41.155Z,1.55
2023-05-23T10:18:14.686Z,1.33
2023-05-23T10:20:45.751Z,0.80
2023-05-23T10:23:15.136Z,2.08
2023-05-23T10:25:45.741Z,1.90
2023-05-23T10:28:16.290Z,1.40
2023-05-23T10:30:45.666Z,1.33
2023-05-23T10:33:17.349Z,1.75
2023-05-23T10:35:54.971Z,1.60
2023-05-23T10:38:33.164Z,1.02
2023-05-23T10:41:12.857Z,1.85
2023-05-23T10:43:50.892Z,2.25
2023-05-23T10:46:22.750Z,1.40
2023-05-23T10:48:57.969Z,1.40
2023-05-23T10:51:26.841Z,1.70
2023-05-23T10:53:56.227Z,0.60
2023-05-23T10:56:26.720Z,0.98
2023-05-23T10:58:58.601Z,1.35
2023-05-23T11:01:28.646Z,1.48
2023-05-23T11:03:57.397Z,1.63
2023-05-23T11:06:33.946Z,1.38
2023-05-23T11:09:07.575Z,1.23
2023-05-23T11:12:06.000Z,1.73
2023-05-23T11:14:55.866Z,1.35
2023-05-23T11:17:34.865Z,1.17
2023-05-23T11:20:07.342Z,1.85
2023-05-23T11:22:37.019Z,1.60
2023-05-23T11:25:10.537Z,0.80
2023-05-23T11:27:41.941Z,2.00
2023-05-23T11:30:13.872Z,1.60
2023-05-23T11:32:43.511Z,1.02
2023-05-23T11:35:12.608Z,1.23
2023-05-23T11:37:41.641Z,0.88
2023-05-23T11:40:33.009Z,1.13
2023-05-23T11:43:05.235Z,1.17
2023-05-23T11:45:35.500Z,1.27
2023-05-23T11:48:08.658Z,1.25
2023-05-23T11:50:46.082Z,0.85
2023-05-23T11:53:17.168Z,1.10
2023-05-23T11:55:50.980Z,1.42
2023-05-23T11:58:21.591Z,1.08
2023-05-23T12:00:50.195Z,1.45
2023-05-23T12:03:19.194Z,1.25
2023-05-23T12:05:47.774Z,0.70
2023-05-23T12:08:16.235Z,1.13
2023-05-23T12:10:52.776Z,1.00
2023-05-23T12:13:26.253Z,1.00
2023-05-23T12:15:58.708Z,1.15
2023-05-23T12:18:30.472Z,1.60
2023-05-23T12:21:03.125Z,2.33
2023-05-23T12:23:34.459Z,0.93
2023-05-23T12:26:07.077Z,1.67
2023-05-23T12:28:42.454Z,1.00
2023-05-23T12:31:13.531Z,1.25
2023-05-23T12:33:44.095Z,0.93
2023-05-23T12:36:13.305Z,1.88
2023-05-23T12:38:45.368Z,1.35
2023-05-23T12:41:16.704Z,1.17
2023-05-23T12:43:53.213Z,1.45
2023-05-23T12:46:24.175Z,1.02
2023-05-23T12:48:52.983Z,1.60
2023-05-23T12:51:22.233Z,0.88
2023-05-23T12:53:50.694Z,1.45
2023-05-23T12:56:19.344Z,0.98
2023-05-23T12:58:48.284Z,0.65
2023-05-23T13:01:18.145Z,1.67
2023-05-23T13:03:46.613Z,1.95
2023-05-23T13:06:15.025Z,1.08
2023-05-23T13:08:44.292Z,0.90
2023-05-23T13:11:12.811Z,1.10
2023-05-23T13:13:41.500Z,0.43
2023-05-23T13:16:10.434Z,0.80
2023-05-23T13:18:40.710Z,1.13
2023-05-23T13:21:09.319Z,1.10
2023-05-23T13:23:39.010Z,0.73
2023-05-23T13:26:08.061Z,0.75
2023-05-23T13:28:36.552Z,1.05
2023-05-23T13:31:04.949Z,0.88
2023-05-23T13:33:33.438Z,1.38
2023-05-23T13:36:03.192Z,0.95
2023-05-23T13:38:32.370Z,1.08
2023-05-23T13:41:03.010Z,1.98
2023-05-23T13:43:31.512Z,1.40
2023-05-23T13:46:01.228Z,0.85
2023-05-23T13:48:29.732Z,0.80
2023-05-23T13:50:58.137Z,0.60
2023-05-23T13:53:27.925Z,1.02
2023-05-23T13:55:56.295Z,1.17
2023-05-23T13:58:24.625Z,0.88
2023-05-23T14:00:53.211Z,1.08
2023-05-23T14:03:24.589Z,1.63
2023-05-23T14:05:53.201Z,1.00
2023-05-23T14:08:21.667Z,0.77
2023-05-23T14:10:52.467Z,1.13
2023-05-23T14:13:22.018Z,0.68
2023-05-23T14:15:51.061Z,0.65
2023-05-23T14:18:20.006Z,0.80
2023-05-23T14:20:48.449Z,1.05
2023-05-23T14:23:16.874Z,1.27
2023-05-23T14:25:46.263Z,0.80
2023-05-23T14:28:16.556Z,1.23
2023-05-23T14:30:45.729Z,1.58
2023-05-23T14:33:15.173Z,1.65
2023-05-23T14:35:44.022Z,1.60
2023-05-23T14:38:12.619Z,0.88
2023-05-23T14:40:41.175Z,1.63
2023-05-23T14:43:09.637Z,1.20
2023-05-23T14:45:39.615Z,1.05
2023-05-23T14:48:08.805Z,0.82
2023-05-23T14:50:37.394Z,0.70
2023-05-23T14:53:06.020Z,1.00
2023-05-23T14:55:34.338Z,1.52
2023-05-23T14:58:03.630Z,0.80
2023-05-23T15:00:32.434Z,1.23
2023-05-23T15:03:02.218Z,0.45
2023-05-23T15:05:30.790Z,1.58
2023-05-23T15:07:59.191Z,0.95
2023-05-23T15:10:27.740Z,0.77
2023-05-23T15:12:56.157Z,0.65
2023-05-23T15:15:24.692Z,1.13
2023-05-23T15:17:53.142Z,0.65
2023-05-23T15:20:22.965Z,0.80
2023-05-23T15:22:51.629Z,0.50
2023-05-23T15:25:30.282Z,1.30
2023-05-23T15:28:07.096Z,1.10
2023-05-23T15:30:36.352Z,1.13
2023-05-23T15:33:05.304Z,0.73
2023-05-23T15:35:35.519Z,0.60
2023-05-23T15:38:03.858Z,0.63
2023-05-23T15:40:32.244Z,0.50
2023-05-23T15:43:00.783Z,0.60
2023-05-23T15:45:29.286Z,0.88
2023-05-23T15:47:57.619Z,1.10
2023-05-23T15:50:26.127Z,0.93
2023-05-23T15:52:55.838Z,0.43
2023-05-23T15:55:24.174Z,0.30
2023-05-23T15:57:52.585Z,0.55
2023-05-23T16:00:22.112Z,1.33
2023-05-23T16:02:50.607Z,0.82
2023-05-23T16:05:19.133Z,0.70
2023-05-23T16:07:50.102Z,0.80
2023-05-23T16:10:20.461Z,0.68
2023-05-23T16:12:48.863Z,0.60
2023-05-23T16:15:17.318Z,0.80
2023-05-23T16:17:46.010Z,0.77
2023-05-23T16:20:16.688Z,0.65
2023-05-23T16:22:45.931Z,0.52
2023-05-23T16:25:14.393Z,0.60
2023-05-23T16:27:44.140Z,0.52
2023-05-23T16:30:12.981Z,0.70
2023-05-23T16:32:41.447Z,0.82
2023-05-23T16:35:11.173Z,0.60
2023-05-23T16:37:39.801Z,0.70
2023-05-23T16:40:09.492Z,0.30
2023-05-23T16:42:38.329Z,0.60
2023-05-23T16:45:09.442Z,0.50
2023-05-23T16:47:37.960Z,1.27
2023-05-23T16:50:08.374Z,0.55
2023-05-23T16:52:36.746Z,0.68
2023-05-23T16:55:05.666Z,0.70
2023-05-23T16:57:34.046Z,1.05
2023-05-23T17:00:05.420Z,2.30
2023-05-23T17:02:35.222Z,0.40
2023-05-23T17:05:03.963Z,1.15
2023-05-23T17:07:32.742Z,0.93
2023-05-23T17:10:01.095Z,0.60
2023-05-23T17:12:29.495Z,1.00
2023-05-23T17:14:57.826Z,0.80
2023-05-23T17:17:26.270Z,0.32
2023-05-23T17:19:56.480Z,0.50
2023-05-23T17:22:25.076Z,0.80
2023-05-23T17:24:53.932Z,1.15
2023-05-23T17:27:22.604Z,0.50
2023-05-23T17:29:51.289Z,0.47
2023-05-23T17:32:21.061Z,1.10
2023-05-23T17:34:49.773Z,0.98
2023-05-23T17:37:19.877Z,1.13
2023-05-23T17:39:51.076Z,0.95
2023-05-23T17:42:22.878Z,0.70
2023-05-23T17:44:51.582Z,0.57
2023-05-23T17:47:21.582Z,0.77
2023-05-23T17:49:50.252Z,0.82
2023-05-23T17:52:20.266Z,0.63
2023-05-23T17:54:49.037Z,1.20
2023-05-23T17:57:17.771Z,1.02
2023-05-23T17:59:46.760Z,0.45
2023-05-23T18:02:15.503Z,0.95
2023-05-23T18:04:44.540Z,0.70
2023-05-23T18:07:13.683Z,1.52
2023-05-23T18:09:44.176Z,1.30
2023-05-23T18:12:12.819Z,1.73
2023-05-23T18:14:42.160Z,0.88
2023-05-23T18:17:11.484Z,0.43
2023-05-23T18:19:40.659Z,0.63
2023-05-23T18:22:09.635Z,1.15
2023-05-23T18:24:38.161Z,0.57
2023-05-23T18:27:08.364Z,0.60
2023-05-23T18:29:37.440Z,0.80
2023-05-23T18:32:08.178Z,0.47
2023-05-23T18:34:36.633Z,0.63
2023-05-23T18:37:05.364Z,0.70
2023-05-23T18:39:33.853Z,0.98
2023-05-23T18:42:02.296Z,0.95
2023-05-23T18:44:33.292Z,0.88
2023-05-23T18:47:01.854Z,0.80
2023-05-23T18:49:30.412Z,1.02
2023-05-23T18:51:58.816Z,0.63
2023-05-23T18:54:27.186Z,0.45
2023-05-23T18:56:55.890Z,0.70
2023-05-23T18:59:24.402Z,1.00
2023-05-23T19:01:55.382Z,0.73
2023-05-23T19:04:23.796Z,0.60
2023-05-23T19:06:55.013Z,0.90
2023-05-23T19:09:23.480Z,0.55
2023-05-23T19:11:52.085Z,0.73
2023-05-23T19:14:20.909Z,1.15
2023-05-23T19:16:49.412Z,0.60
2023-05-23T19:19:21.913Z,1.25
2023-05-23T19:21:51.128Z,0.73
2023-05-23T19:24:21.134Z,0.57
2023-05-23T19:26:49.752Z,1.08
2023-05-23T19:29:18.495Z,0.65
2023-05-23T19:31:47.472Z,0.70
2023-05-23T19:34:16.306Z,0.50
2023-05-23T19:36:46.341Z,0.50
2023-05-23T19:39:15.103Z,0.70
2023-05-23T19:41:43.755Z,0.50
2023-05-23T19:44:13.263Z,0.68
2023-05-23T19:46:44.457Z,0.60
2023-05-23T19:49:13.720Z,0.95
2023-05-23T19:51:42.109Z,0.60
2023-05-23T19:54:13.757Z,1.40
2023-05-23T19:56:42.249Z,0.65
2023-05-23T19:59:13.748Z,0.80
2023-05-23T20:01:42.341Z,1.27
2023-05-23T20:04:12.892Z,0.77
2023-05-23T20:06:42.185Z,0.93
2023-05-23T20:09:12.037Z,0.82
2023-05-23T20:11:40.417Z,0.90
2023-05-23T20:14:11.145Z,0.95
2023-05-23T20:16:39.605Z,1.50
2023-05-23T20:19:08.279Z,1.25
2023-05-23T20:21:39.028Z,1.10
2023-05-23T20:24:07.742Z,0.77
2023-05-23T20:26:37.513Z,0.90
2023-05-23T20:29:07.141Z,1.65
2023-05-23T20:31:37.189Z,1.00
2023-05-23T20:34:05.548Z,1.60
2023-05-23T20:36:34.128Z,1.48
2023-05-23T20:39:02.550Z,1.38
2023-05-23T20:41:30.982Z,1.50
2023-05-23T20:44:01.920Z,1.60
2023-05-23T20:46:31.345Z,1.58
2023-05-23T20:48:59.732Z,1.63
2023-05-23T20:51:28.140Z,1.25
2023-05-23T20:53:56.576Z,0.95
2023-05-23T20:56:24.965Z,1.60
2023-05-23T20:58:53.517Z,0.70
2023-05-23T21:01:23.689Z,1.23
2023-05-23T21:03:52.131Z,0.88
2023-05-23T21:06:20.540Z,1.02
2023-05-23T21:08:49.255Z,1.17
2023-05-23T21:11:17.978Z,1.20
2023-05-23T21:13:48.830Z,1.08
2023-05-23T21:16:17.791Z,1.65
2023-05-23T21:18:47.881Z,1.50
2023-05-23T21:21:16.839Z,1.58
2023-05-23T21:23:45.645Z,1.83
2023-05-23T21:26:14.309Z,2.33
2023-05-23T21:28:43.324Z,1.80
2023-05-23T21:31:12.885Z,1.35
2023-05-23T21:33:42.706Z,1.30
2023-05-23T21:36:12.445Z,2.13
2023-05-23T21:38:41.194Z,1.88
2023-05-23T21:41:09.640Z,1.63
2023-05-23T21:43:38.038Z,1.50
2023-05-23T21:46:06.533Z,2.00
2023-05-23T21:48:34.913Z,1.38
2023-05-23T21:51:03.253Z,2.08
2023-05-23T21:53:36.264Z,2.35
2023-05-23T21:56:04.850Z,2.03
2023-05-23T21:58:33.457Z,1.65
2023-05-23T22:01:02.098Z,1.42
2023-05-23T22:03:30.852Z,2.47
2023-05-23T22:05:59.500Z,2.00
2023-05-23T22:08:31.880Z,1.90
2023-05-23T22:11:02.328Z,2.17
2023-05-23T22:13:31.236Z,2.05
2023-05-23T22:16:02.502Z,1.60
2023-05-23T22:18:40.334Z,2.42
2023-05-23T22:21:19.157Z,1.70
2023-05-23T22:23:47.663Z,2.22
2023-05-23T22:26:17.775Z,2.22
2023-05-23T22:28:46.706Z,2.05
2023-05-23T22:31:15.498Z,1.92
2023-05-23T22:33:44.340Z,2.53
2023-05-23T22:36:12.865Z,1.80
2023-05-23T22:38:41.262Z,2.25
2023-05-23T22:41:09.640Z,2.17
2023-05-23T22:43:41.588Z,2.00
2023-05-23T22:46:09.998Z,2.22
2023-05-23T22:48:39.497Z,2.22
2023-05-23T22:51:12.519Z,2.10
2023-05-23T22:53:41.300Z,2.28
2023-05-23T22:56:09.675Z,2.25
2023-05-23T22:58:39.476Z,2.17
2023-05-23T23:01:07.835Z,2.28
2023-05-23T23:03:36.351Z,2.53
2023-05-23T23:06:06.470Z,1.65
2023-05-23T23:08:35.468Z,2.90
2023-05-23T23:11:04.271Z,2.40
2023-05-23T23:13:32.662Z,2.38
2023-05-23T23:16:02.341Z,2.70
2023-05-23T23:18:30.762Z,2.55
2023-05-23T23:20:59.334Z,2.15
2023-05-23T23:23:27.701Z,2.65
2023-05-23T23:25:56.278Z,2.70
2023-05-23T23:28:24.641Z,2.65
2023-05-23T23:30:53.034Z,2.75
2023-05-23T23:33:22.785Z,3.63
2023-05-23T23:35:51.958Z,2.20
2023-05-23T23:38:20.556Z,2.42
2023-05-23T23:40:48.938Z,1.95
2023-05-23T23:43:17.473Z,2.00
2023-05-23T23:45:46.309Z,2.92
2023-05-23T23:48:15.050Z,3.22
2023-05-23T23:50:45.009Z,2.65
2023-05-23T23:53:13.667Z,2.30
2023-05-23T23:55:42.437Z,2.88
2023-05-23T23:58:10.906Z,2.60
